createdAt,value
2019-02-06T08:31:55.199Z,1006.00
2019-02-06T08:32:54.998Z,1005.96
2019-02-06T08:33:54.874Z,1005.97
2019-02-06T08:35:04.050Z,1005.86
2019-02-06T08:35:54.863Z,1005.92
2019-02-06T08:37:00.162Z,1005.90
2019-02-06T08:37:54.902Z,1005.94
2019-02-06T08:38:55.682Z,1005.91
2019-02-06T08:40:16.791Z,1005.91
2019-02-06T08:40:55.606Z,1005.90
2019-02-06T08:41:54.850Z,1005.89
2019-02-06T08:42:57.779Z,1005.86
2019-02-06T08:43:54.730Z,1005.83
2019-02-06T08:44:54.761Z,1005.88
2019-02-06T08:45:54.703Z,1005.86
2019-02-06T08:46:54.718Z,1005.91
2019-02-06T08:47:57.626Z,1005.89
2019-02-06T08:49:20.180Z,1005.92
2019-02-06T08:49:57.228Z,1005.87
2019-02-06T08:50:59.143Z,1005.89
2019-02-06T08:51:56.224Z,1005.83
2019-02-06T08:53:09.224Z,1005.86
2019-02-06T08:54:09.211Z,1005.85
2019-02-06T08:54:54.607Z,1005.78
2019-02-06T08:55:54.599Z,1005.80
2019-02-06T08:56:54.624Z,1005.78
2019-02-06T08:57:54.601Z,1005.78
2019-02-06T08:58:54.610Z,1005.74
2019-02-06T08:59:54.723Z,1005.73
2019-02-06T09:00:54.551Z,1005.71
2019-02-06T09:01:54.554Z,1005.74
2019-02-06T09:02:54.521Z,1005.75
2019-02-06T09:03:54.649Z,1005.72
2019-02-06T09:04:56.068Z,1005.78
2019-02-06T09:05:54.576Z,1005.76
2019-02-06T09:06:57.236Z,1005.73
2019-02-06T09:07:54.513Z,1005.74
2019-02-06T09:08:59.841Z,1005.73
2019-02-06T09:09:55.456Z,1005.74
2019-02-06T09:10:54.493Z,1005.75
2019-02-06T09:11:54.481Z,1005.72
2019-02-06T09:12:57.539Z,1005.76
2019-02-06T09:13:54.400Z,1005.75
2019-02-06T09:15:01.179Z,1005.73
2019-02-06T09:15:54.479Z,1005.73
2019-02-06T09:16:54.429Z,1005.72
2019-02-06T09:17:54.348Z,1005.78
2019-02-06T09:18:54.344Z,1005.79
2019-02-06T09:19:54.359Z,1005.81
2019-02-06T09:20:54.377Z,1005.82
2019-02-06T09:21:54.359Z,1005.82
2019-02-06T09:22:54.458Z,1005.86
2019-02-06T09:23:54.276Z,1005.87
2019-02-06T09:24:54.285Z,1005.84
2019-02-06T09:25:57.329Z,1005.78
2019-02-06T09:26:54.254Z,1005.81
2019-02-06T09:27:54.262Z,1005.84
2019-02-06T09:28:54.219Z,1005.89
2019-02-06T09:29:54.252Z,1005.89
2019-02-06T09:30:54.211Z,1005.88
2019-02-06T09:31:54.197Z,1005.87
2019-02-06T09:32:54.253Z,1005.95
2019-02-06T09:33:54.409Z,1005.97
2019-02-06T09:34:54.157Z,1005.92
2019-02-06T09:35:54.145Z,1005.97
2019-02-06T09:36:54.169Z,1005.99
2019-02-06T09:37:54.221Z,1005.98
2019-02-06T09:38:54.116Z,1006.03
2019-02-06T09:39:54.104Z,1006.04
2019-02-06T09:40:54.126Z,1006.01
2019-02-06T09:41:54.084Z,1006.04
2019-02-06T09:42:54.226Z,1006.01
2019-02-06T09:43:54.177Z,1006.00
2019-02-06T09:44:54.053Z,1006.00
2019-02-06T09:45:56.967Z,1006.00
2019-02-06T09:46:54.092Z,1006.01
2019-02-06T09:48:02.808Z,1005.98
2019-02-06T09:48:55.625Z,1006.02
2019-02-06T09:49:54.006Z,1006.00
2019-02-06T09:50:53.995Z,1006.05
2019-02-06T09:51:54.067Z,1006.07
2019-02-06T09:52:54.004Z,1006.09
2019-02-06T09:53:53.948Z,1006.15
2019-02-06T09:54:53.934Z,1006.14
2019-02-06T09:59:23.279Z,1006.14
2019-02-06T09:59:45.535Z,1006.20
2019-02-06T10:02:10.217Z,1006.25
2019-02-06T10:03:10.301Z,1006.29
2019-02-06T10:04:10.156Z,1006.29
2019-02-06T10:05:10.139Z,1006.24
2019-02-06T10:06:10.125Z,1006.30
2019-02-06T10:07:10.120Z,1006.26
2019-02-06T10:08:10.130Z,1006.22
2019-02-06T10:09:10.093Z,1006.26
2019-02-06T10:10:10.083Z,1006.25
2019-02-06T10:11:10.107Z,1006.28
2019-02-06T10:12:11.936Z,1006.32
2019-02-06T10:13:10.073Z,1006.31
2019-02-06T10:14:10.081Z,1006.31
2019-02-06T10:15:10.031Z,1006.32
2019-02-06T10:16:10.018Z,1006.34
2019-02-06T10:17:10.003Z,1006.28
2019-02-06T10:18:10.017Z,1006.26
2019-02-06T10:19:10.022Z,1006.27
2019-02-06T10:20:09.972Z,1006.26
2019-02-06T10:21:09.983Z,1006.29
2019-02-06T10:22:09.955Z,1006.30
2019-02-06T10:23:09.939Z,1006.35
2019-02-06T10:24:09.952Z,1006.42
2019-02-06T10:25:09.959Z,1006.39
2019-02-06T10:26:09.911Z,1006.38
2019-02-06T10:27:09.919Z,1006.42
2019-02-06T10:28:09.882Z,1006.33
2019-02-06T10:29:10.688Z,1006.37
2019-02-06T10:30:09.858Z,1006.36
2019-02-06T10:31:09.847Z,1006.34
2019-02-06T10:32:10.022Z,1006.31
2019-02-06T10:33:09.827Z,1006.28
2019-02-06T10:34:09.814Z,1006.27
2019-02-06T10:35:09.853Z,1006.25
2019-02-06T10:36:09.822Z,1006.27
2019-02-06T10:37:09.780Z,1006.27
2019-02-06T10:38:09.776Z,1006.31
2019-02-06T10:39:09.763Z,1006.29
2019-02-06T10:40:10.177Z,1006.29
2019-02-06T10:41:09.968Z,1006.29
2019-02-06T10:42:09.848Z,1006.23
2019-02-06T10:43:09.713Z,1006.21
2019-02-06T10:44:09.704Z,1006.22
2019-02-06T10:45:09.748Z,1006.21
2019-02-06T10:46:09.679Z,1006.21
2019-02-06T10:47:09.670Z,1006.19
2019-02-06T10:48:09.675Z,1006.17
2019-02-06T10:49:09.646Z,1006.18
2019-02-06T10:50:09.657Z,1006.19
2019-02-06T10:51:09.624Z,1006.16
2019-02-06T10:52:09.612Z,1006.17
2019-02-06T10:53:09.620Z,1006.19
2019-02-06T10:54:09.589Z,1006.21
2019-02-06T10:55:09.602Z,1006.15
2019-02-06T10:56:09.569Z,1006.16
2019-02-06T10:57:10.337Z,1006.14
2019-02-06T10:58:09.545Z,1006.13
2019-02-06T10:59:09.549Z,1006.08
2019-02-06T11:00:09.545Z,1006.05
2019-02-06T11:01:09.512Z,1006.09
2019-02-06T11:02:09.501Z,1006.10
2019-02-06T11:03:09.658Z,1006.07
2019-02-06T11:04:09.480Z,1005.98
2019-02-06T11:05:09.490Z,1005.99
2019-02-06T11:06:09.480Z,1005.98
2019-02-06T11:07:09.446Z,1005.95
2019-02-06T11:08:09.434Z,1005.90
2019-02-06T11:09:09.423Z,1005.89
2019-02-06T11:10:09.436Z,1005.95
2019-02-06T11:11:09.403Z,1005.94
2019-02-06T11:12:09.411Z,1005.87
2019-02-06T11:13:09.379Z,1005.94
2019-02-06T11:14:09.366Z,1005.93
2019-02-06T11:15:09.378Z,1005.99
2019-02-06T11:16:09.348Z,1005.92
2019-02-06T11:17:09.333Z,1005.92
2019-02-06T11:18:09.344Z,1005.94
2019-02-06T11:19:09.310Z,1005.93
2019-02-06T11:20:09.322Z,1005.90
2019-02-06T11:21:09.288Z,1005.85
2019-02-06T11:22:09.279Z,1005.88
2019-02-06T11:23:09.265Z,1005.88
2019-02-06T11:24:09.276Z,1005.82
2019-02-06T11:25:09.265Z,1005.80
2019-02-06T11:26:09.232Z,1005.83
2019-02-06T11:27:09.224Z,1005.79
2019-02-06T11:28:09.214Z,1005.83
2019-02-06T11:29:09.199Z,1005.79
2019-02-06T11:30:09.254Z,1005.81
2019-02-06T11:31:09.177Z,1005.83
2019-02-06T11:32:09.165Z,1005.76
2019-02-06T11:33:09.155Z,1005.78
2019-02-06T11:34:09.143Z,1005.78
2019-02-06T11:35:09.154Z,1005.72
2019-02-06T11:36:09.152Z,1005.70
2019-02-06T11:37:09.110Z,1005.66
2019-02-06T11:38:09.269Z,1005.65
2019-02-06T11:39:09.086Z,1005.61
2019-02-06T11:40:09.194Z,1005.60
2019-02-06T11:41:09.065Z,1005.57
2019-02-06T11:42:09.052Z,1005.59
2019-02-06T11:43:09.072Z,1005.55
2019-02-06T11:44:09.031Z,1005.57
2019-02-06T11:45:09.041Z,1005.54
2019-02-06T11:46:09.295Z,1005.52
2019-02-06T11:47:08.999Z,1005.48
2019-02-06T11:48:08.992Z,1005.50
2019-02-06T11:49:08.977Z,1005.48
2019-02-06T11:50:09.048Z,1005.51
2019-02-06T11:51:08.985Z,1005.50
2019-02-06T11:52:08.943Z,1005.53
2019-02-06T11:53:08.931Z,1005.48
2019-02-06T11:54:08.919Z,1005.51
2019-02-06T11:55:08.933Z,1005.49
2019-02-06T11:56:08.898Z,1005.50
2019-02-06T11:57:08.913Z,1005.43
2019-02-06T11:58:08.875Z,1005.42
2019-02-06T11:59:12.905Z,1005.40
2019-02-06T12:00:09.309Z,1005.40
2019-02-06T12:01:08.843Z,1005.37
2019-02-06T12:02:08.830Z,1005.39
2019-02-06T12:03:08.821Z,1005.35
2019-02-06T12:04:08.808Z,1005.31
2019-02-06T12:05:08.840Z,1005.31
2019-02-06T12:06:08.811Z,1005.28
2019-02-06T12:07:08.775Z,1005.25
2019-02-06T12:08:08.765Z,1005.24
2019-02-06T12:09:08.934Z,1005.23
2019-02-06T12:10:10.299Z,1005.24
2019-02-06T12:11:08.750Z,1005.19
2019-02-06T12:12:08.733Z,1005.24
2019-02-06T12:13:08.755Z,1005.15
2019-02-06T12:14:08.696Z,1005.21
2019-02-06T12:15:08.716Z,1005.16
2019-02-06T12:16:08.676Z,1005.11
2019-02-06T12:17:08.706Z,1005.14
2019-02-06T12:18:08.870Z,1005.06
2019-02-06T12:19:08.639Z,1005.04
2019-02-06T12:20:08.714Z,1004.99
2019-02-06T12:21:08.627Z,1004.98
2019-02-06T12:22:08.614Z,1005.01
2019-02-06T12:23:08.601Z,1004.91
2019-02-06T12:24:08.671Z,1004.91
2019-02-06T12:25:09.156Z,1004.94
2019-02-06T12:26:08.593Z,1004.92
2019-02-06T12:27:08.737Z,1004.87
2019-02-06T12:28:08.540Z,1004.91
2019-02-06T12:29:08.529Z,1004.89
2019-02-06T12:30:08.517Z,1004.88
2019-02-06T12:31:08.551Z,1004.83
2019-02-06T12:32:08.497Z,1004.85
2019-02-06T12:33:08.489Z,1004.81
2019-02-06T12:34:08.510Z,1004.79
2019-02-06T12:35:08.461Z,1004.80
2019-02-06T12:36:08.476Z,1004.78
2019-02-06T12:37:08.447Z,1004.72
2019-02-06T12:38:08.428Z,1004.73
2019-02-06T12:39:08.452Z,1004.70
2019-02-06T12:40:08.406Z,1004.71
2019-02-06T12:41:08.419Z,1004.65
2019-02-06T12:42:08.382Z,1004.62
2019-02-06T12:43:10.465Z,1004.58
2019-02-06T12:44:08.365Z,1004.59
2019-02-06T12:45:08.351Z,1004.58
2019-02-06T12:46:08.392Z,1004.52
2019-02-06T12:47:08.411Z,1004.53
2019-02-06T12:48:08.426Z,1004.47
2019-02-06T12:49:08.306Z,1004.46
2019-02-06T12:50:08.295Z,1004.48
2019-02-06T12:51:08.332Z,1004.39
2019-02-06T12:52:08.270Z,1004.39
2019-02-06T12:53:08.261Z,1004.40
2019-02-06T12:54:08.290Z,1004.40
2019-02-06T12:55:08.243Z,1004.41
2019-02-06T12:56:08.252Z,1004.44
2019-02-06T12:57:08.215Z,1004.37
2019-02-06T12:58:08.205Z,1004.34
2019-02-06T12:59:08.220Z,1004.33
2019-02-06T13:00:08.184Z,1004.29
2019-02-06T13:01:08.192Z,1004.33
2019-02-06T13:02:08.159Z,1004.34
2019-02-06T13:03:08.214Z,1004.28
2019-02-06T13:04:08.146Z,1004.19
2019-02-06T13:05:08.153Z,1004.20
2019-02-06T13:06:08.138Z,1004.22
2019-02-06T13:07:08.107Z,1004.24
2019-02-06T13:08:08.092Z,1004.25
2019-02-06T13:09:08.081Z,1004.17
2019-02-06T13:10:08.070Z,1004.10
2019-02-06T13:11:08.103Z,1004.12
2019-02-06T13:12:08.055Z,1004.12
2019-02-06T13:13:08.036Z,1004.15
2019-02-06T13:14:08.024Z,1004.10
2019-02-06T13:15:08.014Z,1004.09
2019-02-06T13:16:08.025Z,1004.07
2019-02-06T13:17:08.021Z,1004.13
2019-02-06T13:18:07.980Z,1004.06
2019-02-06T13:19:08.092Z,1004.10
2019-02-06T13:20:07.978Z,1003.98
2019-02-06T13:21:08.492Z,1004.01
2019-02-06T13:22:08.161Z,1004.00
2019-02-06T13:23:08.335Z,1003.99
2019-02-06T13:24:08.901Z,1003.98
2019-02-06T13:25:07.901Z,1003.97
2019-02-06T13:26:07.894Z,1003.98
2019-02-06T13:27:07.901Z,1003.97
2019-02-06T13:28:07.870Z,1003.95
2019-02-06T13:29:07.858Z,1003.94
2019-02-06T13:30:07.857Z,1003.97
2019-02-06T13:31:07.835Z,1003.90
2019-02-06T13:32:07.871Z,1003.88
2019-02-06T13:33:07.812Z,1003.86
2019-02-06T13:34:07.801Z,1003.83
2019-02-06T13:35:07.811Z,1003.85
2019-02-06T13:36:07.779Z,1003.85
2019-02-06T13:37:07.792Z,1003.85
2019-02-06T13:38:07.757Z,1003.85
2019-02-06T13:39:07.744Z,1003.83
2019-02-06T13:40:07.749Z,1003.86
2019-02-06T13:41:07.723Z,1003.83
2019-02-06T13:42:07.735Z,1003.89
2019-02-06T13:43:07.702Z,1003.82
2019-02-06T13:44:07.691Z,1003.85
2019-02-06T13:45:07.678Z,1003.88
2019-02-06T13:46:08.070Z,1003.85
2019-02-06T13:47:07.684Z,1003.83
2019-02-06T13:48:07.647Z,1003.81
2019-02-06T13:49:07.634Z,1003.86
2019-02-06T13:50:07.626Z,1003.87
2019-02-06T13:51:16.294Z,1003.87
2019-02-06T13:52:08.646Z,1003.86
2019-02-06T13:53:07.614Z,1003.88
2019-02-06T13:54:07.580Z,1003.82
2019-02-06T13:55:07.736Z,1003.84
2019-02-06T13:56:07.579Z,1003.82
2019-02-06T13:57:08.589Z,1003.84
2019-02-06T13:58:19.847Z,1003.79
2019-02-06T13:59:08.523Z,1003.79
2019-02-06T14:00:07.513Z,1003.75
2019-02-06T14:01:07.509Z,1003.73
2019-02-06T14:02:07.513Z,1003.72
2019-02-06T14:03:07.504Z,1003.71
2019-02-06T14:04:07.582Z,1003.69
2019-02-06T14:05:07.458Z,1003.63
2019-02-06T14:06:07.466Z,1003.66
2019-02-06T14:07:07.445Z,1003.61
2019-02-06T14:08:07.450Z,1003.59
2019-02-06T14:09:08.481Z,1003.61
2019-02-06T14:10:08.586Z,1003.58
2019-02-06T14:11:07.801Z,1003.56
2019-02-06T14:12:08.424Z,1003.52
2019-02-06T14:13:07.808Z,1003.53
2019-02-06T14:14:29.940Z,1003.59
2019-02-06T14:15:08.315Z,1003.57
2019-02-06T14:16:09.225Z,1003.61
2019-02-06T14:17:08.452Z,1003.54
2019-02-06T14:18:08.193Z,1003.58
2019-02-06T14:19:07.943Z,1003.57
2019-02-06T14:20:07.487Z,1003.55
2019-02-06T14:21:07.942Z,1003.54
2019-02-06T14:22:09.868Z,1003.56
2019-02-06T14:23:07.550Z,1003.49
2019-02-06T14:24:07.534Z,1003.51
2019-02-06T14:25:07.885Z,1003.58
2019-02-06T14:26:14.046Z,1003.54
2019-02-06T14:27:07.627Z,1003.50
2019-02-06T14:28:08.873Z,1003.52
2019-02-06T14:29:07.579Z,1003.52
2019-02-06T14:30:07.493Z,1003.50
2019-02-06T14:31:07.176Z,1003.48
2019-02-06T14:32:07.166Z,1003.43
2019-02-06T14:33:07.322Z,1003.43
2019-02-06T14:34:07.165Z,1003.41
2019-02-06T14:35:07.252Z,1003.44
2019-02-06T14:36:07.122Z,1003.41
2019-02-06T14:37:07.229Z,1003.40
2019-02-06T14:38:07.098Z,1003.47
2019-02-06T14:39:07.119Z,1003.43
2019-02-06T14:40:07.076Z,1003.46
2019-02-06T14:41:08.972Z,1003.40
2019-02-06T14:42:07.360Z,1003.36
2019-02-06T14:43:07.383Z,1003.33
2019-02-06T14:44:08.747Z,1003.31
2019-02-06T14:45:07.025Z,1003.31
2019-02-06T14:46:07.006Z,1003.31
2019-02-06T14:47:06.995Z,1003.33
2019-02-06T14:48:06.984Z,1003.39
2019-02-06T14:49:06.996Z,1003.41
2019-02-06T14:50:06.958Z,1003.35
2019-02-06T14:51:06.946Z,1003.36
2019-02-06T14:52:06.933Z,1003.40
2019-02-06T14:53:06.929Z,1003.41
2019-02-06T14:54:06.937Z,1003.43
2019-02-06T14:55:07.410Z,1003.46
2019-02-06T14:56:07.041Z,1003.46
2019-02-06T14:57:07.668Z,1003.47
2019-02-06T14:58:09.188Z,1003.42
2019-02-06T14:59:06.990Z,1003.39
2019-02-06T15:00:06.874Z,1003.44
2019-02-06T15:01:06.839Z,1003.40
2019-02-06T15:02:06.824Z,1003.42
2019-02-06T15:03:06.810Z,1003.43
2019-02-06T15:04:06.802Z,1003.43
2019-02-06T15:05:06.811Z,1003.40
2019-02-06T15:06:06.778Z,1003.35
2019-02-06T15:07:06.766Z,1003.31
2019-02-06T15:08:06.756Z,1003.37
2019-02-06T15:09:06.746Z,1003.39
2019-02-06T15:10:06.773Z,1003.34
2019-02-06T15:11:06.722Z,1003.34
2019-02-06T15:12:06.711Z,1003.28
2019-02-06T15:13:06.726Z,1003.30
2019-02-06T15:14:06.687Z,1003.29
2019-02-06T15:15:06.702Z,1003.31
2019-02-06T15:16:06.665Z,1003.29
2019-02-06T15:17:06.658Z,1003.27
2019-02-06T15:18:06.672Z,1003.21
2019-02-06T15:19:06.633Z,1003.21
2019-02-06T15:20:06.691Z,1003.20
2019-02-06T15:21:06.625Z,1003.21
2019-02-06T15:22:06.599Z,1003.20
2019-02-06T15:23:06.587Z,1003.25
2019-02-06T15:24:06.606Z,1003.23
2019-02-06T15:25:06.588Z,1003.24
2019-02-06T15:26:06.553Z,1003.26
2019-02-06T15:27:06.544Z,1003.19
2019-02-06T15:28:06.534Z,1003.18
2019-02-06T15:29:06.521Z,1003.16
2019-02-06T15:30:06.566Z,1003.12
2019-02-06T15:31:06.497Z,1003.11
2019-02-06T15:32:06.488Z,1003.13
2019-02-06T15:33:06.476Z,1003.09
2019-02-06T15:34:06.465Z,1003.08
2019-02-06T15:35:06.476Z,1003.03
2019-02-06T15:36:06.499Z,1003.05
2019-02-06T15:37:06.432Z,1003.05
2019-02-06T15:38:06.421Z,1003.01
2019-02-06T15:39:06.409Z,1003.01
2019-02-06T15:40:06.408Z,1002.99
2019-02-06T15:41:06.409Z,1002.98
2019-02-06T15:42:06.406Z,1002.93
2019-02-06T15:43:06.367Z,1002.92
2019-02-06T15:44:13.388Z,1002.88
2019-02-06T15:45:13.376Z,1002.89
2019-02-06T15:46:13.382Z,1002.88
2019-02-06T15:47:06.320Z,1002.92
2019-02-06T15:48:06.309Z,1002.87
2019-02-06T15:49:06.311Z,1002.88
2019-02-06T15:50:06.287Z,1002.90
2019-02-06T15:51:06.297Z,1002.90
2019-02-06T15:52:06.297Z,1002.90
2019-02-06T15:53:06.255Z,1002.89
2019-02-06T15:54:06.242Z,1002.89
2019-02-06T15:55:06.233Z,1002.89
2019-02-06T15:56:06.243Z,1002.88
2019-02-06T15:57:06.234Z,1002.87
2019-02-06T15:58:06.199Z,1002.85
2019-02-06T15:59:06.192Z,1002.81
2019-02-06T16:00:06.175Z,1002.83
2019-02-06T16:01:06.186Z,1002.84
2019-02-06T16:02:06.154Z,1002.87
2019-02-06T16:03:06.168Z,1002.81
2019-02-06T16:04:06.131Z,1002.85
2019-02-06T16:05:06.120Z,1002.86
2019-02-06T16:06:06.133Z,1002.85
2019-02-06T16:07:06.122Z,1002.86
2019-02-06T16:08:06.086Z,1002.90
2019-02-06T16:09:06.099Z,1002.85
2019-02-06T16:10:06.065Z,1002.86
2019-02-06T16:11:06.079Z,1002.89
2019-02-06T16:12:06.063Z,1002.95
2019-02-06T16:13:06.031Z,1002.91
2019-02-06T16:14:06.022Z,1002.91
2019-02-06T16:15:06.034Z,1002.89
2019-02-06T16:16:05.998Z,1002.85
2019-02-06T16:17:06.009Z,1002.86
2019-02-06T16:18:05.975Z,1002.83
2019-02-06T16:19:05.965Z,1002.74
2019-02-06T16:20:08.299Z,1002.77
2019-02-06T16:21:05.956Z,1002.79
2019-02-06T16:22:05.956Z,1002.80
2019-02-06T16:23:05.921Z,1002.82
2019-02-06T16:24:05.913Z,1002.79
2019-02-06T16:25:05.898Z,1002.76
2019-02-06T16:26:05.889Z,1002.68
2019-02-06T16:27:05.927Z,1002.69
2019-02-06T16:28:05.865Z,1002.68
2019-02-06T16:29:05.856Z,1002.69
2019-02-06T16:30:05.842Z,1002.69
2019-02-06T16:31:05.833Z,1002.70
2019-02-06T16:32:05.847Z,1002.65
2019-02-06T16:33:05.834Z,1002.69
2019-02-06T16:34:05.801Z,1002.69
2019-02-06T16:35:05.789Z,1002.66
2019-02-06T16:36:05.776Z,1002.62
2019-02-06T16:37:05.788Z,1002.67
2019-02-06T16:38:05.754Z,1002.64
2019-02-06T16:39:05.763Z,1002.63
2019-02-06T16:40:05.733Z,1002.61
2019-02-06T16:41:05.727Z,1002.61
2019-02-06T16:42:05.734Z,1002.52
2019-02-06T16:43:05.726Z,1002.52
2019-02-06T16:44:05.687Z,1002.50
2019-02-06T16:45:05.701Z,1002.48
2019-02-06T16:46:05.666Z,1002.48
2019-02-06T16:47:05.654Z,1002.50
2019-02-06T16:48:05.665Z,1002.50
2019-02-06T16:49:05.632Z,1002.47
2019-02-06T16:50:05.620Z,1002.49
2019-02-06T16:51:05.628Z,1002.49
2019-02-06T16:52:05.598Z,1002.49
2019-02-06T16:53:05.611Z,1002.48
2019-02-06T16:54:05.580Z,1002.45
2019-02-06T16:55:05.566Z,1002.47
2019-02-06T16:56:05.556Z,1002.50
2019-02-06T16:57:05.566Z,1002.52
2019-02-06T16:58:05.554Z,1002.44
2019-02-06T16:59:05.520Z,1002.42
2019-02-06T17:00:05.512Z,1002.42
2019-02-06T17:01:05.499Z,1002.53
2019-02-06T17:02:05.487Z,1002.50
2019-02-06T17:03:05.514Z,1002.46
2019-02-06T17:04:05.467Z,1002.54
2019-02-06T17:05:05.537Z,1002.54
2019-02-06T17:06:05.443Z,1002.66
2019-02-06T17:07:05.434Z,1002.65
2019-02-06T17:08:05.444Z,1002.62
2019-02-06T17:09:05.431Z,1002.59
2019-02-06T17:10:05.402Z,1002.59
2019-02-06T17:11:05.391Z,1002.53
2019-02-06T17:12:05.377Z,1002.58
2019-02-06T17:13:05.400Z,1002.52
2019-02-06T17:14:05.378Z,1002.57
2019-02-06T17:15:05.367Z,1002.56
2019-02-06T17:16:05.333Z,1002.59
2019-02-06T17:17:05.321Z,1002.55
2019-02-06T17:18:05.311Z,1002.58
2019-02-06T17:19:08.537Z,1002.54
2019-02-06T17:20:05.312Z,1002.55
2019-02-06T17:21:05.276Z,1002.54
2019-02-06T17:22:05.313Z,1002.54
2019-02-06T17:23:05.255Z,1002.47
2019-02-06T17:24:05.268Z,1002.41
2019-02-06T17:25:05.233Z,1002.40
2019-02-06T17:26:05.243Z,1002.44
2019-02-06T17:27:05.215Z,1002.47
2019-02-06T17:28:05.202Z,1002.44
2019-02-06T17:29:05.211Z,1002.47
2019-02-06T17:30:05.178Z,1002.43
2019-02-06T17:31:05.167Z,1002.45
2019-02-06T17:32:05.172Z,1002.45
2019-02-06T17:33:05.144Z,1002.40
2019-02-06T17:34:05.163Z,1002.39
2019-02-06T17:35:05.121Z,1002.43
2019-02-06T17:36:05.114Z,1002.37
2019-02-06T17:37:05.099Z,1002.37
2019-02-06T17:38:05.099Z,1002.36
2019-02-06T17:39:05.099Z,1002.37
2019-02-06T17:40:05.066Z,1002.30
2019-02-06T17:41:05.056Z,1002.29
2019-02-06T17:42:15.099Z,1002.28
2019-02-06T17:43:06.030Z,1002.28
2019-02-06T17:44:05.080Z,1002.28
2019-02-06T17:45:05.011Z,1002.34
2019-02-06T17:46:05.000Z,1002.33
2019-02-06T17:47:04.988Z,1002.30
2019-02-06T17:48:04.977Z,1002.29
2019-02-06T17:49:04.966Z,1002.24
2019-02-06T17:50:04.999Z,1002.22
2019-02-06T17:51:04.944Z,1002.22
2019-02-06T17:52:04.933Z,1002.25
2019-02-06T17:53:04.921Z,1002.24
2019-02-06T17:54:04.910Z,1002.30
2019-02-06T17:55:04.922Z,1002.31
2019-02-06T17:56:04.919Z,1002.31
2019-02-06T17:57:04.878Z,1002.32
2019-02-06T17:58:04.866Z,1002.32
2019-02-06T17:59:04.856Z,1002.30
2019-02-06T18:00:04.866Z,1002.28
2019-02-06T18:01:04.835Z,1002.30
2019-02-06T18:02:04.839Z,1002.34
2019-02-06T18:03:04.811Z,1002.40
2019-02-06T18:04:04.799Z,1002.37
2019-02-06T18:05:04.814Z,1002.39
2019-02-06T18:06:04.777Z,1002.35
2019-02-06T18:07:04.767Z,1002.37
2019-02-06T18:08:04.771Z,1002.36
2019-02-06T18:09:04.748Z,1002.26
2019-02-06T18:10:04.760Z,1002.24
2019-02-06T18:11:04.724Z,1002.26
2019-02-06T18:12:04.712Z,1002.21
2019-02-06T18:13:04.703Z,1002.20
2019-02-06T18:14:04.715Z,1002.14
2019-02-06T18:15:04.677Z,1002.16
2019-02-06T18:16:04.695Z,1002.16
2019-02-06T18:17:04.658Z,1002.21
2019-02-06T18:18:04.645Z,1002.20
2019-02-06T18:19:04.636Z,1002.20
2019-02-06T18:20:04.650Z,1002.22
2019-02-06T18:21:04.634Z,1002.14
2019-02-06T18:22:04.599Z,1002.15
2019-02-06T18:23:04.590Z,1002.16
2019-02-06T18:24:04.580Z,1002.14
2019-02-06T18:25:04.568Z,1002.11
2019-02-06T18:26:04.613Z,1002.13
2019-02-06T18:27:04.545Z,1002.17
2019-02-06T18:28:04.534Z,1002.18
2019-02-06T18:29:04.524Z,1002.15
2019-02-06T18:30:04.512Z,1002.19
2019-02-06T18:31:04.522Z,1002.15
2019-02-06T18:32:04.507Z,1002.14
2019-02-06T18:33:04.480Z,1002.16
2019-02-06T18:34:04.467Z,1002.10
2019-02-06T18:35:04.459Z,1002.14
2019-02-06T18:36:04.466Z,1002.14
2019-02-06T18:37:04.434Z,1002.23
2019-02-06T18:38:04.447Z,1002.25
2019-02-06T18:39:04.413Z,1002.19
2019-02-06T18:40:04.401Z,1002.18
2019-02-06T18:41:04.411Z,1002.16
2019-02-06T18:42:04.378Z,1002.14
2019-02-06T18:43:04.369Z,1002.08
2019-02-06T18:44:04.415Z,1002.04
2019-02-06T18:45:04.345Z,1002.07
2019-02-06T18:46:04.359Z,1002.09
2019-02-06T18:47:04.323Z,1002.02
2019-02-06T18:48:04.313Z,1002.03
2019-02-06T18:49:04.409Z,1002.01
2019-02-06T18:50:04.308Z,1002.07
2019-02-06T18:51:04.301Z,1002.06
2019-02-06T18:52:04.268Z,1002.04
2019-02-06T18:53:04.258Z,1002.04
2019-02-06T18:54:04.246Z,1002.02
2019-02-06T18:55:04.233Z,1002.01
2019-02-06T18:56:04.246Z,1001.95
2019-02-06T18:57:04.244Z,1002.02
2019-02-06T18:58:04.202Z,1002.00
2019-02-06T18:59:04.191Z,1001.99
2019-02-06T19:00:04.182Z,1002.01
2019-02-06T19:01:04.195Z,1002.07
2019-02-06T19:02:04.184Z,1002.05
2019-02-06T19:03:04.166Z,1002.06
2019-02-06T19:04:04.134Z,1002.01
2019-02-06T19:05:04.122Z,1002.00
2019-02-06T19:06:04.113Z,1002.02
2019-02-06T19:07:04.126Z,1002.02
2019-02-06T19:08:04.096Z,1001.98
2019-02-06T19:09:04.113Z,1001.98
2019-02-06T19:10:04.067Z,1001.93
2019-02-06T19:11:04.056Z,1001.93
2019-02-06T19:12:04.070Z,1001.91
2019-02-06T19:13:04.036Z,1001.91
2019-02-06T19:14:04.023Z,1001.90
2019-02-06T19:15:04.031Z,1001.85
2019-02-06T19:16:04.001Z,1001.85
2019-02-06T19:17:04.012Z,1001.81
2019-02-06T19:18:03.980Z,1001.78
2019-02-06T19:19:03.971Z,1001.74
2019-02-06T19:20:03.959Z,1001.75
2019-02-06T19:21:03.961Z,1001.80
2019-02-06T19:22:03.955Z,1001.81
2019-02-06T19:23:03.921Z,1001.82
2019-02-06T19:24:03.911Z,1001.74
2019-02-06T19:25:03.900Z,1001.75
2019-02-06T19:26:03.888Z,1001.74
2019-02-06T19:27:03.917Z,1001.74
2019-02-06T19:28:03.871Z,1001.70
2019-02-06T19:29:03.856Z,1001.72
2019-02-06T19:30:03.848Z,1001.70
2019-02-06T19:31:03.832Z,1001.63
2019-02-06T19:32:03.842Z,1001.66
2019-02-06T19:33:03.834Z,1001.61
2019-02-06T19:34:03.800Z,1001.61
2019-02-06T19:35:03.793Z,1001.59
2019-02-06T19:36:03.777Z,1001.49
2019-02-06T19:37:03.788Z,1001.48
2019-02-06T19:38:03.755Z,1001.50
2019-02-06T19:39:03.776Z,1001.47
2019-02-06T19:40:03.733Z,1001.42
2019-02-06T19:41:03.721Z,1001.43
2019-02-06T19:42:03.736Z,1001.42
2019-02-06T19:43:03.703Z,1001.45
2019-02-06T19:44:03.686Z,1001.43
2019-02-06T19:45:03.697Z,1001.39
2019-02-06T19:46:03.665Z,1001.42
2019-02-06T19:47:03.677Z,1001.39
2019-02-06T19:48:15.229Z,1001.42
2019-02-06T19:49:04.628Z,1001.38
2019-02-06T19:50:03.619Z,1001.41
2019-02-06T19:51:03.636Z,1001.37
2019-02-06T19:52:03.630Z,1001.41
2019-02-06T19:53:03.677Z,1001.38
2019-02-06T19:54:03.572Z,1001.37
2019-02-06T19:55:03.565Z,1001.44
2019-02-06T19:56:03.551Z,1001.38
2019-02-06T19:57:03.559Z,1001.41
2019-02-06T19:58:03.551Z,1001.41
2019-02-06T19:59:03.517Z,1001.44
2019-02-06T20:00:03.507Z,1001.41
2019-02-06T20:01:03.495Z,1001.39
2019-02-06T20:02:03.484Z,1001.42
2019-02-06T20:03:03.519Z,1001.41
2019-02-06T20:04:03.461Z,1001.37
2019-02-06T20:05:03.451Z,1001.35
2019-02-06T20:06:05.566Z,1001.29
2019-02-06T20:07:03.427Z,1001.31
2019-02-06T20:08:03.438Z,1001.28
2019-02-06T20:09:03.423Z,1001.24
2019-02-06T20:10:03.395Z,1001.17
2019-02-06T20:11:03.384Z,1001.23
2019-02-06T20:12:03.386Z,1001.18
2019-02-06T20:13:10.557Z,1001.09
2019-02-06T20:14:04.352Z,1001.13
2019-02-06T20:15:03.355Z,1001.05
2019-02-06T20:16:03.328Z,1001.03
2019-02-06T20:17:03.317Z,1000.99
2019-02-06T20:18:03.391Z,1001.01
2019-02-06T20:19:03.296Z,1000.98
2019-02-06T20:20:03.283Z,1000.98
2019-02-06T20:21:03.293Z,1000.99
2019-02-06T20:22:03.261Z,1000.97
2019-02-06T20:23:03.372Z,1000.97
2019-02-06T20:24:03.238Z,1000.94
2019-02-06T20:25:03.227Z,1000.93
2019-02-06T20:26:03.215Z,1000.88
2019-02-06T20:27:03.240Z,1000.89
2019-02-06T20:28:03.216Z,1000.92
2019-02-06T20:29:03.182Z,1000.92
2019-02-06T20:30:03.170Z,1000.89
2019-02-06T20:31:03.159Z,1000.92
2019-02-06T20:32:03.148Z,1000.86
2019-02-06T20:33:03.179Z,1000.86
2019-02-06T20:34:03.126Z,1000.81
2019-02-06T20:35:03.115Z,1000.82
2019-02-06T20:36:03.104Z,1000.79
2019-02-06T20:37:03.092Z,1000.77
2019-02-06T20:38:03.113Z,1000.76
2019-02-06T20:39:03.087Z,1000.75
2019-02-06T20:40:03.058Z,1000.70
2019-02-06T20:41:03.050Z,1000.68